Time;durP1;ratioP1;P1;durP2;ratioP2;P2;SDS_P1;SDS_P2;PMS_P1;PMS_P2;Temp;Humidity;BMP_temperature;BMP_pressure;BME280_temperature;BME280_humidity;BME280_pressure;Samples;Min_cycle;Max_cycle;Signal;HPM_P1;HPM_P2
2024/01/06 00:02:09;;;;;;;12.85;10.80;;;3.00;99.90;;;;;;5079497;28;20135;-66
2024/01/06 00:04:35;;;;;;;11.10;10.10;;;3.00;99.90;;;;;;5084168;28;20437;-66
2024/01/06 00:07:00;;;;;;;11.38;10.23;;;2.90;99.90;;;;;;5081354;28;20043;-66
2024/01/06 00:09:26;;;;;;;11.95;10.85;;;2.90;99.90;;;;;;5084013;28;20044;-66
2024/01/06 00:11:51;;;;;;;11.68;10.45;;;2.90;99.90;;;;;;5083134;28;20033;-66
2024/01/06 00:14:17;;;;;;;12.63;11.32;;;2.90;99.90;;;;;;5081234;28;20095;-66
2024/01/06 00:16:42;;;;;;;14.77;13.23;;;2.90;99.90;;;;;;5078241;28;20040;-66
2024/01/06 00:19:08;;;;;;;14.50;13.10;;;3.00;99.90;;;;;;5085196;28;20055;-66
2024/01/06 00:21:33;;;;;;;15.55;13.95;;;3.00;99.90;;;;;;5079150;28;20135;-66
2024/01/06 00:23:59;;;;;;;15.95;14.35;;;3.00;99.90;;;;;;5079973;28;20058;-66
2024/01/06 00:26:25;;;;;;;17.83;15.93;;;3.00;99.90;;;;;;5082216;28;20181;-66
2024/01/06 00:28:51;;;;;;;17.55;15.68;;;3.00;99.90;;;;;;5082146;28;20123;-66
2024/01/06 00:31:17;;;;;;;18.88;16.92;;;3.00;99.90;;;;;;5084935;28;20520;-66
2024/01/06 00:33:43;;;;;;;18.58;16.60;;;2.90;99.90;;;;;;5079614;28;20037;-66
2024/01/06 00:36:09;;;;;;;19.25;17.25;;;3.00;99.90;;;;;;5080038;28;20075;-66
2024/01/06 00:38:35;;;;;;;17.33;15.63;;;2.90;99.90;;;;;;5085002;28;20032;-66
2024/01/06 00:41:01;;;;;;;16.95;15.25;;;2.90;99.90;;;;;;5081959;28;20039;-66
2024/01/06 00:43:27;;;;;;;17.33;15.63;;;2.90;99.90;;;;;;5079216;28;20044;-66
2024/01/06 00:45:52;;;;;;;16.67;15.02;;;2.90;99.90;;;;;;5085176;28;20050;-66
2024/01/06 00:48:18;;;;;;;18.27;16.40;;;2.90;99.90;;;;;;5083313;28;20051;-67
2024/01/06 00:50:44;;;;;;;18.80;16.45;;;2.80;99.90;;;;;;5077891;28;20039;-67
2024/01/06 00:53:09;;;;;;;18.15;16.40;;;2.90;99.90;;;;;;5080469;28;20503;-66
2024/01/06 00:55:35;;;;;;;18.60;16.65;;;2.80;99.90;;;;;;5112105;27;20040;-67
2024/01/06 00:58:00;;;;;;;19.20;16.70;;;2.80;99.90;;;;;;5084468;28;20036;-66
2024/01/06 01:00:27;;;;;;;17.75;15.95;;;2.80;99.90;;;;;;5083000;28;20162;-66
2024/01/06 01:02:52;;;;;;;17.58;15.63;;;2.80;99.90;;;;;;5078847;28;20047;-66
2024/01/06 01:05:18;;;;;;;17.40;15.60;;;2.80;99.90;;;;;;5082173;28;20040;-66
2024/01/06 01:07:44;;;;;;;15.57;14.02;;;2.80;99.90;;;;;;5115652;27;20067;-66
2024/01/06 01:10:10;;;;;;;16.58;14.85;;;2.70;99.90;;;;;;5083404;28;21777;-66
2024/01/06 01:12:36;;;;;;;16.05;14.55;;;2.70;99.90;;;;;;5079805;28;20569;-66
2024/01/06 01:15:02;;;;;;;14.98;13.50;;;2.80;99.90;;;;;;5081609;28;20048;-66
2024/01/06 01:17:27;;;;;;;13.85;12.50;;;2.70;99.90;;;;;;5081992;28;20044;-66
2024/01/06 01:19:53;;;;;;;13.85;12.45;;;2.70;99.90;;;;;;5079091;28;20713;-66
2024/01/06 01:22:19;;;;;;;15.00;13.25;;;2.60;99.90;;;;;;5082021;28;20047;-66
2024/01/06 01:24:44;;;;;;;16.02;14.13;;;2.60;99.90;;;;;;5082719;28;20040;-66
2024/01/06 01:27:10;;;;;;;15.23;13.68;;;2.60;99.90;;;;;;5082044;28;20048;-66
2024/01/06 01:29:36;;;;;;;15.95;14.25;;;2.60;99.90;;;;;;5078803;28;20038;-66
2024/01/06 01:32:01;;;;;;;17.38;14.57;;;2.60;99.90;;;;;;5065470;28;20605;-66
2024/01/06 01:34:27;;;;;;;16.90;14.77;;;2.60;99.90;;;;;;5079560;28;20486;-66
2024/01/06 01:36:52;;;;;;;16.98;15.18;;;2.60;99.90;;;;;;5083016;28;20024;-66
2024/01/06 01:39:18;;;;;;;16.95;15.15;;;2.60;99.90;;;;;;5080664;28;20052;-66
2024/01/06 01:41:44;;;;;;;18.73;15.27;;;2.60;99.90;;;;;;5079526;28;20048;-66
2024/01/06 01:44:09;;;;;;;17.55;15.27;;;2.50;99.90;;;;;;5083675;28;20298;-66
2024/01/06 01:46:35;;;;;;;18.15;15.32;;;2.50;99.90;;;;;;5080543;28;20088;-66
2024/01/06 01:49:02;;;;;;;18.55;15.50;;;2.50;99.90;;;;;;5080796;28;20130;-66
2024/01/06 01:51:30;;;;;;;17.13;15.23;;;2.50;99.90;;;;;;5098358;27;20035;-66
2024/01/06 01:53:58;;;;;;;14.85;13.25;;;2.50;99.90;;;;;;5072783;28;20044;-66
2024/01/06 01:56:25;;;;;;;15.35;13.15;;;2.40;99.90;;;;;;5079891;28;20036;-66
2024/01/06 01:58:51;;;;;;;16.95;14.18;;;2.40;99.90;;;;;;5078741;28;20043;-66
2024/01/06 02:01:17;;;;;;;15.48;13.70;;;2.30;99.90;;;;;;5075496;28;20048;-66
2024/01/06 02:03:43;;;;;;;14.10;12.63;;;2.40;99.90;;;;;;5081154;28;20040;-66
2024/01/06 02:06:10;;;;;;;13.45;12.13;;;2.30;99.90;;;;;;5076747;28;20043;-66
2024/01/06 02:08:35;;;;;;;13.55;12.15;;;2.30;99.90;;;;;;5076746;28;20036;-66
2024/01/06 02:11:01;;;;;;;13.77;12.38;;;2.30;99.90;;;;;;5077630;28;20038;-66
2024/01/06 02:13:35;;;;;;;14.68;13.07;;;2.20;99.90;;;;;;5075507;28;20115;-66
2024/01/06 02:16:02;;;;;;;14.23;12.73;;;2.30;99.90;;;;;;5078616;28;20437;-66
2024/01/06 02:18:27;;;;;;;15.93;13.88;;;2.20;99.90;;;;;;5078170;28;20047;-66
2024/01/06 02:21:00;;;;;;;17.27;14.13;;;2.20;99.90;;;;;;5078742;28;20051;-66
2024/01/06 02:23:29;;;;;;;15.10;13.50;;;2.20;99.90;;;;;;5081503;28;20604;-66
2024/01/06 02:25:55;;;;;;;14.43;12.75;;;2.20;99.90;;;;;;5075779;28;20048;-66
2024/01/06 02:28:21;;;;;;;14.40;12.90;;;2.10;99.90;;;;;;5106672;27;20077;-66
2024/01/06 02:30:47;;;;;;;16.20;13.38;;;2.10;99.90;;;;;;5078002;28;20024;-66
2024/01/06 02:33:12;;;;;;;17.00;13.95;;;2.20;99.90;;;;;;5072960;28;20175;-66
2024/01/06 02:35:39;;;;;;;17.42;14.75;;;2.20;99.90;;;;;;5075241;28;20048;-66
2024/01/06 02:38:05;;;;;;;17.75;14.15;;;2.10;99.90;;;;;;5078736;28;20482;-66
2024/01/06 02:40:32;;;;;;;18.15;13.43;;;2.20;99.90;;;;;;5106022;27;20032;-66
2024/01/06 02:42:58;;;;;;;18.45;13.95;;;2.20;99.90;;;;;;5092947;28;20043;-66
2024/01/06 02:45:24;;;;;;;17.17;14.23;;;2.10;99.90;;;;;;5062952;28;20075;-65
2024/01/06 02:47:50;;;;;;;22.50;15.38;;;2.10;99.90;;;;;;5076101;28;20683;-66
2024/01/06 02:50:15;;;;;;;18.52;15.05;;;2.10;99.90;;;;;;5075344;28;22186;-66
2024/01/06 02:52:42;;;;;;;20.65;14.55;;;2.10;99.90;;;;;;5060257;28;20068;-66
2024/01/06 02:55:07;;;;;;;19.88;14.60;;;2.00;99.90;;;;;;5107797;27;20144;-66
2024/01/06 02:57:33;;;;;;;16.45;14.23;;;2.10;99.90;;;;;;5077897;28;20119;-66
2024/01/06 02:59:59;;;;;;;17.77;14.43;;;2.00;99.90;;;;;;5074355;28;20144;-66
2024/01/06 03:02:25;;;;;;;17.70;15.05;;;2.00;99.90;;;;;;5091473;28;20483;-66
2024/01/06 03:04:51;;;;;;;21.58;15.18;;;2.00;99.90;;;;;;5076024;28;20045;-66
2024/01/06 03:07:16;;;;;;;20.70;15.05;;;2.00;99.90;;;;;;5072935;28;20044;-66
2024/01/06 03:09:42;;;;;;;18.83;14.32;;;2.00;99.90;;;;;;5061560;28;20151;-66
2024/01/06 03:12:08;;;;;;;20.55;14.75;;;2.00;99.90;;;;;;5079248;28;20044;-66
2024/01/06 03:14:36;;;;;;;19.50;13.80;;;2.00;99.90;;;;;;5079998;28;20041;-66
2024/01/06 03:17:02;;;;;;;17.85;14.85;;;2.00;99.90;;;;;;5082952;28;20040;-66
2024/01/06 03:19:28;;;;;;;19.38;14.80;;;2.00;99.90;;;;;;5081470;28;20135;-66
2024/01/06 03:21:54;;;;;;;19.20;13.60;;;2.00;99.90;;;;;;5074860;28;20044;-66
2024/01/06 03:24:21;;;;;;;16.77;13.30;;;1.90;99.90;;;;;;5081144;28;20039;-66
2024/01/06 03:26:47;;;;;;;17.58;13.27;;;1.90;99.90;;;;;;5075009;28;20528;-66
2024/01/06 03:29:13;;;;;;;19.42;15.57;;;1.80;99.90;;;;;;5077029;28;20036;-66
2024/01/06 03:31:42;;;;;;;21.45;15.85;;;1.80;99.90;;;;;;5113461;27;20034;-66
2024/01/06 03:34:08;;;;;;;20.77;16.60;;;1.80;99.90;;;;;;5079118;28;20028;-66
2024/01/06 03:36:34;;;;;;;22.70;15.13;;;1.80;99.90;;;;;;5108837;27;20048;-66
2024/01/06 03:39:00;;;;;;;19.50;15.80;;;1.80;99.90;;;;;;5079657;28;20038;-66
2024/01/06 03:41:25;;;;;;;21.30;16.95;;;1.80;99.90;;;;;;5075267;28;20045;-66
2024/01/06 03:43:51;;;;;;;25.92;17.15;;;1.70;99.90;;;;;;5081991;28;20489;-65
2024/01/06 03:46:16;;;;;;;25.02;17.27;;;1.80;99.90;;;;;;5076889;28;20083;-66
2024/01/06 03:48:42;;;;;;;21.25;16.60;;;1.80;99.90;;;;;;5079446;28;20046;-66
2024/01/06 03:51:10;;;;;;;21.98;15.60;;;1.80;99.90;;;;;;5094891;27;20043;-66
2024/01/06 03:53:36;;;;;;;22.25;15.82;;;1.70;99.90;;;;;;5075009;28;20923;-66
2024/01/06 03:56:03;;;;;;;22.70;16.02;;;1.70;99.90;;;;;;5080098;28;20043;-66
2024/01/06 03:58:29;;;;;;;23.00;16.92;;;1.70;99.90;;;;;;5078680;28;20052;-66
2024/01/06 04:00:55;;;;;;;20.33;16.30;;;1.70;99.90;;;;;;5077293;28;20078;-66
2024/01/06 04:03:20;;;;;;;18.95;15.13;;;1.80;99.90;;;;;;5077583;28;20547;-66
2024/01/06 04:05:46;;;;;;;21.70;14.93;;;1.80;99.90;;;;;;5111547;27;20131;-66
2024/01/06 04:08:12;;;;;;;17.67;13.10;;;1.80;99.90;;;;;;5082588;28;20036;-66
2024/01/06 04:10:37;;;;;;;16.67;13.93;;;1.70;99.90;;;;;;5084732;28;20032;-66
2024/01/06 04:13:04;;;;;;;19.73;13.95;;;1.70;99.90;;;;;;5080601;28;20046;-66
2024/01/06 04:15:29;;;;;;;21.83;15.77;;;1.70;99.90;;;;;;5082259;28;20040;-66
2024/01/06 04:18:02;;;;;;;22.35;16.02;;;1.70;99.90;;;;;;5115069;27;20036;-66
2024/01/06 04:20:27;;;;;;;21.85;15.23;;;1.70;99.90;;;;;;5082378;28;20071;-66
2024/01/06 04:22:53;;;;;;;21.55;16.15;;;1.70;99.90;;;;;;5082355;28;20070;-66
2024/01/06 04:25:19;;;;;;;26.38;16.58;;;1.70;99.90;;;;;;5081963;28;20468;-66
2024/01/06 04:27:46;;;;;;;26.25;18.20;;;1.70;99.90;;;;;;5081430;28;20059;-66
2024/01/06 04:30:12;;;;;;;25.92;18.05;;;1.70;99.90;;;;;;5115596;27;20586;-66
2024/01/06 04:32:38;;;;;;;26.58;17.40;;;1.70;99.90;;;;;;5080700;28;20474;-66
2024/01/06 04:35:04;;;;;;;24.65;17.60;;;1.70;99.90;;;;;;5082394;28;20039;-66
2024/01/06 04:37:30;;;;;;;23.65;17.02;;;1.80;99.90;;;;;;5089584;28;20036;-66
2024/01/06 04:39:56;;;;;;;22.60;16.73;;;1.70;99.90;;;;;;5080793;28;20042;-66
2024/01/06 04:42:22;;;;;;;21.13;15.48;;;1.70;99.90;;;;;;5082064;28;20406;-66
2024/01/06 04:44:48;;;;;;;21.17;15.90;;;1.70;99.90;;;;;;5083185;28;20046;-66
2024/01/06 04:47:14;;;;;;;19.27;14.52;;;1.70;99.90;;;;;;5109291;27;20390;-66
2024/01/06 04:49:40;;;;;;;22.92;13.82;;;1.80;99.90;;;;;;5080186;28;20048;-66
2024/01/06 04:52:05;;;;;;;19.30;13.68;;;1.70;99.90;;;;;;5080677;28;20127;-66
2024/01/06 04:54:31;;;;;;;22.25;12.82;;;1.70;99.90;;;;;;5082953;28;20040;-66
2024/01/06 04:56:58;;;;;;;19.17;13.55;;;1.70;99.90;;;;;;5091082;28;20081;-66
2024/01/06 04:59:24;;;;;;;18.13;12.27;;;1.60;99.90;;;;;;5078419;28;20101;-66
2024/01/06 05:01:51;;;;;;;20.98;12.45;;;1.70;99.90;;;;;;5080847;28;20044;-66
2024/01/06 05:04:17;;;;;;;19.33;12.95;;;1.70;99.90;;;;;;5083524;28;20043;-66
2024/01/06 05:06:43;;;;;;;19.67;12.73;;;1.70;99.90;;;;;;5084865;28;20048;-66
2024/01/06 05:09:08;;;;;;;18.13;13.15;;;1.70;99.90;;;;;;5083819;28;20486;-66
2024/01/06 05:11:34;;;;;;;18.38;13.75;;;1.70;99.90;;;;;;5084364;28;20495;-66
2024/01/06 05:14:00;;;;;;;16.50;12.98;;;1.70;99.90;;;;;;5082546;28;20033;-66
2024/01/06 05:16:26;;;;;;;17.63;13.68;;;1.70;99.90;;;;;;5083788;28;20095;-66
2024/01/06 05:18:51;;;;;;;16.77;12.68;;;1.80;99.90;;;;;;5078157;28;20048;-66
2024/01/06 05:21:17;;;;;;;18.58;13.15;;;1.70;99.90;;;;;;5080425;28;20178;-66
2024/01/06 05:23:43;;;;;;;19.02;14.32;;;1.70;99.90;;;;;;5084242;28;20032;-66
2024/01/06 05:26:09;;;;;;;19.00;14.20;;;1.70;99.90;;;;;;5080948;28;20040;-66
2024/01/06 05:28:35;;;;;;;19.23;14.77;;;1.70;99.90;;;;;;5080427;28;21936;-66
2024/01/06 05:31:00;;;;;;;18.17;14.00;;;1.70;99.90;;;;;;5082061;28;20151;-66
2024/01/06 05:33:26;;;;;;;19.00;14.77;;;1.70;99.90;;;;;;5083101;28;20143;-66
2024/01/06 05:35:51;;;;;;;17.40;13.02;;;1.70;99.90;;;;;;5082015;28;20044;-66
2024/01/06 05:38:17;;;;;;;17.15;13.30;;;1.70;99.90;;;;;;5081316;28;20044;-66
2024/01/06 05:40:43;;;;;;;16.52;13.18;;;1.60;99.90;;;;;;5080662;28;20044;-66
2024/01/06 05:43:08;;;;;;;17.05;13.50;;;1.60;99.90;;;;;;5117178;27;20056;-66
2024/01/06 05:45:34;;;;;;;19.02;13.68;;;1.60;99.90;;;;;;5079655;28;20134;-66
2024/01/06 05:48:00;;;;;;;17.17;14.38;;;1.60;99.90;;;;;;5081777;28;20049;-66
2024/01/06 05:50:25;;;;;;;21.63;15.15;;;1.60;99.90;;;;;;5084953;28;20120;-66
2024/01/06 05:52:52;;;;;;;18.17;15.15;;;1.60;99.90;;;;;;5080128;28;20439;-66
2024/01/06 05:55:19;;;;;;;19.38;15.75;;;1.60;99.90;;;;;;5082177;28;20047;-66
2024/01/06 05:57:44;;;;;;;15.82;14.10;;;1.60;99.90;;;;;;5079498;28;20044;-66
2024/01/06 06:00:11;;;;;;;16.17;13.93;;;1.70;99.90;;;;;;5109140;27;20387;-66
2024/01/06 06:02:36;;;;;;;18.75;14.07;;;1.60;99.90;;;;;;5079819;28;20040;-66
2024/01/06 06:05:02;;;;;;;16.73;14.38;;;1.60;99.90;;;;;;5077824;28;20118;-66
2024/01/06 06:07:28;;;;;;;16.92;15.10;;;1.60;99.90;;;;;;5072194;28;20040;-66
2024/01/06 06:09:54;;;;;;;17.20;14.07;;;1.70;99.90;;;;;;5074347;28;20079;-66
2024/01/06 06:12:19;;;;;;;18.90;13.88;;;1.60;99.90;;;;;;5074900;28;20045;-66
2024/01/06 06:14:45;;;;;;;16.30;13.80;;;2.20;99.90;;;;;;5074368;28;20044;-66
2024/01/06 06:17:11;;;;;;;17.00;13.75;;;1.60;99.90;;;;;;5072934;28;20127;-66
2024/01/06 06:19:36;;;;;;;16.65;13.23;;;1.70;99.90;;;;;;5076757;28;20123;-66
2024/01/06 06:22:03;;;;;;;16.00;13.48;;;1.60;99.90;;;;;;5109065;27;20121;-66
2024/01/06 06:24:29;;;;;;;14.60;12.95;;;1.60;99.90;;;;;;5077873;28;20404;-66
2024/01/06 06:26:54;;;;;;;15.38;13.15;;;1.70;99.90;;;;;;5089673;28;20051;-66
2024/01/06 06:29:20;;;;;;;15.63;14.02;;;1.60;99.90;;;;;;5076569;28;20142;-66
2024/01/06 06:31:46;;;;;;;15.15;13.55;;;1.60;99.90;;;;;;5075333;28;20098;-66
2024/01/06 06:34:12;;;;;;;15.75;13.85;;;1.60;99.90;;;;;;5079166;28;20039;-66
2024/01/06 06:36:38;;;;;;;16.58;14.35;;;1.60;99.90;;;;;;5078587;28;20028;-66
2024/01/06 06:39:04;;;;;;;17.85;15.52;;;1.60;99.90;;;;;;5081242;28;20803;-66
2024/01/06 06:41:30;;;;;;;19.17;15.55;;;1.60;99.90;;;;;;5083220;28;20164;-66
2024/01/06 06:43:59;;;;;;;18.63;15.52;;;1.60;99.90;;;;;;5079715;28;20067;-66
2024/01/06 06:46:25;;;;;;;19.17;15.43;;;1.60;99.90;;;;;;5081735;28;20495;-66
2024/01/06 06:48:51;;;;;;;20.15;15.07;;;1.60;99.90;;;;;;5084272;28;20032;-66
2024/01/06 06:51:16;;;;;;;19.42;14.68;;;1.60;99.90;;;;;;5083179;28;20036;-66
2024/01/06 06:53:42;;;;;;;16.33;14.00;;;1.60;99.90;;;;;;5083136;28;20042;-66
2024/01/06 06:56:08;;;;;;;16.80;13.57;;;1.60;99.90;;;;;;5084965;28;20502;-66
2024/01/06 06:58:33;;;;;;;16.27;13.43;;;1.60;99.90;;;;;;5084922;28;20039;-66
2024/01/06 07:00:59;;;;;;;20.00;14.02;;;1.60;99.90;;;;;;5078956;28;20090;-66
2024/01/06 07:03:26;;;;;;;17.23;15.02;;;1.60;99.90;;;;;;5079381;28;20043;-66
2024/01/06 07:05:52;;;;;;;16.73;14.82;;;1.60;99.90;;;;;;5091631;27;20062;-66
2024/01/06 07:08:18;;;;;;;18.05;13.90;;;1.60;99.90;;;;;;5077209;28;20044;-66
2024/01/06 07:10:43;;;;;;;17.92;14.93;;;1.60;99.90;;;;;;5072919;28;20074;-66
2024/01/06 07:13:09;;;;;;;17.17;13.55;;;1.60;99.90;;;;;;5108992;27;20617;-66
2024/01/06 07:15:35;;;;;;;16.80;14.45;;;1.60;99.90;;;;;;5080377;28;20040;-66
2024/01/06 07:18:00;;;;;;;15.50;12.98;;;1.60;99.90;;;;;;5081526;28;20115;-66
2024/01/06 07:20:26;;;;;;;16.05;14.25;;;1.60;99.90;;;;;;5086210;28;20490;-66
2024/01/06 07:22:52;;;;;;;17.88;14.07;;;1.60;99.90;;;;;;5082039;28;20046;-65
2024/01/06 07:25:17;;;;;;;15.40;12.57;;;1.60;99.90;;;;;;5113556;27;20052;-66
2024/01/06 07:27:43;;;;;;;15.45;12.23;;;1.60;99.90;;;;;;5083928;28;20044;-66
2024/01/06 07:30:09;;;;;;;12.75;11.48;;;1.60;99.90;;;;;;5083398;28;20039;-66
2024/01/06 07:32:35;;;;;;;16.25;13.55;;;1.60;99.90;;;;;;5085247;28;20040;-66
2024/01/06 07:35:02;;;;;;;13.10;11.80;;;1.60;99.90;;;;;;5083111;28;20036;-66
2024/01/06 07:37:27;;;;;;;13.68;11.80;;;1.60;99.90;;;;;;5080294;28;20044;-66
2024/01/06 07:39:53;;;;;;;17.23;13.45;;;1.70;99.90;;;;;;5080381;28;20050;-66
2024/01/06 07:42:19;;;;;;;16.30;11.82;;;1.60;99.90;;;;;;5083261;28;20075;-65
2024/01/06 07:44:47;;;;;;;13.90;11.60;;;1.60;99.90;;;;;;5081098;28;20458;-66
2024/01/06 07:47:14;;;;;;;13.63;11.65;;;1.60;99.90;;;;;;5083014;28;20062;-66
2024/01/06 07:49:40;;;;;;;13.32;11.93;;;1.60;99.90;;;;;;5082695;28;20494;-66
2024/01/06 07:52:05;;;;;;;12.75;10.95;;;1.60;99.90;;;;;;5084737;28;20087;-66
2024/01/06 07:54:31;;;;;;;12.10;10.80;;;1.60;99.90;;;;;;5084978;28;20067;-66
2024/01/06 07:56:57;;;;;;;15.77;11.52;;;1.60;99.90;;;;;;5076939;28;20039;-66
2024/01/06 07:59:23;;;;;;;13.07;11.70;;;1.60;99.90;;;;;;5086016;28;20039;-65
2024/01/06 08:01:49;;;;;;;12.38;10.93;;;1.60;99.90;;;;;;5085115;28;20075;-66
2024/01/06 08:04:15;;;;;;;14.93;10.95;;;1.60;99.90;;;;;;5078287;28;20078;-65
2024/01/06 08:06:40;;;;;;;14.32;11.65;;;1.60;99.90;;;;;;5081678;28;20178;-66
2024/01/06 08:09:06;;;;;;;15.80;12.10;;;1.60;99.90;;;;;;5085965;28;20036;-66
2024/01/06 08:11:31;;;;;;;14.95;12.18;;;1.60;99.90;;;;;;5084115;28;20086;-66
2024/01/06 08:13:57;;;;;;;13.73;12.18;;;1.60;99.90;;;;;;5084659;28;20032;-65
2024/01/06 08:16:23;;;;;;;14.18;12.77;;;1.60;99.90;;;;;;5079851;28;20390;-66
2024/01/06 08:18:48;;;;;;;14.75;12.40;;;1.60;99.90;;;;;;5079498;28;20044;-66
2024/01/06 08:21:14;;;;;;;14.95;12.15;;;1.60;99.90;;;;;;5064568;28;20115;-66
2024/01/06 08:23:39;;;;;;;15.40;12.35;;;1.60;99.90;;;;;;5082043;28;20126;-66
2024/01/06 08:26:06;;;;;;;14.63;11.68;;;1.70;99.90;;;;;;5086127;28;20479;-66
2024/01/06 08:28:31;;;;;;;14.88;13.30;;;1.60;99.90;;;;;;5099798;27;20051;-65
2024/01/06 08:30:57;;;;;;;17.10;12.20;;;1.70;99.90;;;;;;5077518;28;20417;-66
2024/01/06 08:33:22;;;;;;;16.42;12.82;;;1.70;99.90;;;;;;5084646;28;20062;-66
2024/01/06 08:35:48;;;;;;;14.75;12.70;;;1.70;99.90;;;;;;5080799;28;20048;-65
2024/01/06 08:38:14;;;;;;;14.63;11.98;;;1.70;99.90;;;;;;5075131;28;20039;-66
2024/01/06 08:40:40;;;;;;;14.40;13.00;;;1.70;99.90;;;;;;5085293;28;20076;-66
2024/01/06 08:43:05;;;;;;;15.63;13.00;;;1.80;99.90;;;;;;5084926;28;20070;-66
2024/01/06 08:45:31;;;;;;;13.48;12.07;;;1.80;99.90;;;;;;5119201;27;20039;-66
2024/01/06 08:47:57;;;;;;;13.63;11.57;;;1.80;99.90;;;;;;5084358;28;20967;-65
2024/01/06 08:50:22;;;;;;;13.75;12.18;;;1.70;99.90;;;;;;5084940;28;20044;-65
2024/01/06 08:52:48;;;;;;;12.38;11.07;;;1.80;99.90;;;;;;5088204;28;20040;-66
2024/01/06 08:55:14;;;;;;;13.85;12.10;;;1.70;99.90;;;;;;5091773;28;20066;-66
2024/01/06 08:57:39;;;;;;;12.45;11.15;;;1.80;99.90;;;;;;5086808;28;20093;-66
2024/01/06 09:00:05;;;;;;;12.48;11.18;;;1.80;99.90;;;;;;5087175;28;20044;-66
2024/01/06 09:02:31;;;;;;;13.85;12.45;;;1.90;99.90;;;;;;5084579;28;20074;-66
2024/01/06 09:04:57;;;;;;;12.90;11.60;;;1.80;99.90;;;;;;5086870;28;20088;-66
2024/01/06 09:07:22;;;;;;;12.80;11.50;;;1.90;99.90;;;;;;5087309;28;20471;-66
2024/01/06 09:09:48;;;;;;;11.70;10.52;;;1.90;99.90;;;;;;5085061;28;20032;-66
2024/01/06 09:12:13;;;;;;;11.13;10.05;;;1.90;99.90;;;;;;5087104;28;20051;-66
2024/01/06 09:14:39;;;;;;;10.57;9.57;;;1.90;99.90;;;;;;5087693;28;20046;-66
2024/01/06 09:17:04;;;;;;;10.73;9.65;;;1.90;99.90;;;;;;5089784;28;20044;-66
2024/01/06 09:19:30;;;;;;;10.10;9.10;;;1.90;99.90;;;;;;5088377;28;20097;-66
2024/01/06 09:21:56;;;;;;;11.15;10.10;;;1.90;99.90;;;;;;5086118;28;20055;-66
2024/01/06 09:24:22;;;;;;;13.32;10.43;;;1.90;99.90;;;;;;5119992;27;20040;-66
2024/01/06 09:26:50;;;;;;;12.45;10.82;;;2.00;99.90;;;;;;5085289;28;20046;-66
2024/01/06 09:29:16;;;;;;;12.15;10.93;;;1.90;99.90;;;;;;5082035;28;20044;-66
2024/01/06 09:31:41;;;;;;;12.05;10.77;;;2.00;99.90;;;;;;5119506;27;20041;-66
2024/01/06 09:34:09;;;;;;;11.75;10.55;;;2.00;99.90;;;;;;5085945;28;20038;-65
2024/01/06 09:36:35;;;;;;;10.52;9.43;;;1.90;99.90;;;;;;5088378;28;20041;-65
2024/01/06 09:39:01;;;;;;;11.05;9.95;;;2.00;99.90;;;;;;5073950;28;20051;-66
2024/01/06 09:41:27;;;;;;;10.77;9.68;;;2.00;99.90;;;;;;5086731;28;20040;-65
2024/01/06 09:43:52;;;;;;;9.88;8.88;;;2.00;99.90;;;;;;5088939;28;20032;-65
2024/01/06 09:46:26;;;;;;;10.70;9.18;;;2.00;99.90;;;;;;5085881;28;20040;-66
2024/01/06 09:48:55;;;;;;;9.85;8.93;;;2.00;99.90;;;;;;5117362;27;20032;-66
2024/01/06 09:51:21;;;;;;;10.52;9.45;;;2.00;99.90;;;;;;5086553;28;20126;-66
2024/01/06 09:54:00;;;;;;;10.38;9.38;;;2.00;99.90;;;;;;5085513;28;20058;-66
2024/01/06 09:56:28;;;;;;;10.65;9.23;;;1.90;99.90;;;;;;5086557;28;20036;-65
2024/01/06 09:58:54;;;;;;;10.65;9.65;;;2.00;99.90;;;;;;5085366;28;20036;-65
2024/01/06 10:01:20;;;;;;;11.68;9.68;;;1.90;99.90;;;;;;5083623;28;20043;-65
2024/01/06 10:03:46;;;;;;;9.88;8.90;;;2.00;99.90;;;;;;5087725;28;20036;-66
2024/01/06 10:06:13;;;;;;;10.45;9.40;;;1.90;99.90;;;;;;5083866;28;20046;-66
2024/01/06 10:08:41;;;;;;;9.18;8.27;;;2.00;99.90;;;;;;5080423;28;20036;-65
2024/01/06 10:11:10;;;;;;;9.57;8.68;;;2.00;99.90;;;;;;5081994;28;20067;-65
2024/01/06 10:13:38;;;;;;;10.48;9.18;;;1.90;99.90;;;;;;5083335;28;20032;-65
2024/01/06 10:16:05;;;;;;;9.93;9.02;;;2.00;99.90;;;;;;5082164;28;20044;-66
2024/01/06 10:18:31;;;;;;;10.10;9.10;;;2.00;99.90;;;;;;5086568;28;20587;-65
2024/01/06 10:20:57;;;;;;;10.30;9.20;;;2.00;99.90;;;;;;5120093;27;20052;-65
2024/01/06 10:23:24;;;;;;;9.60;8.60;;;2.00;99.90;;;;;;5088857;28;20145;-66
2024/01/06 10:25:54;;;;;;;11.50;9.57;;;2.00;99.90;;;;;;5086111;28;20055;-66
2024/01/06 10:28:23;;;;;;;10.52;9.50;;;2.00;99.90;;;;;;5081179;28;20044;-65
2024/01/06 10:30:52;;;;;;;11.13;10.02;;;2.10;99.90;;;;;;5082552;28;20052;-65
2024/01/06 10:33:22;;;;;;;10.38;9.38;;;2.10;99.90;;;;;;5084417;28;20040;-65
2024/01/06 10:35:49;;;;;;;11.15;10.02;;;2.10;99.90;;;;;;5087585;28;20060;-65
2024/01/06 10:38:18;;;;;;;10.63;9.63;;;2.00;99.90;;;;;;5085103;28;20051;-66
2024/01/06 10:41:19;;;;;;;10.60;9.60;;;2.00;99.90;;;;;;5082011;28;20048;-66
2024/01/06 10:43:46;;;;;;;10.77;9.75;;;2.00;99.90;;;;;;5077519;27;20060;-66
2024/01/06 10:46:14;;;;;;;10.10;8.93;;;2.00;99.90;;;;;;5083731;28;20051;-66
2024/01/06 10:48:43;;;;;;;10.50;9.40;;;2.00;99.90;;;;;;5085898;28;20062;-65
2024/01/06 10:51:10;;;;;;;12.88;10.55;;;2.00;99.90;;;;;;5080265;28;20074;-66
2024/01/06 10:53:38;;;;;;;11.57;10.43;;;2.00;99.90;;;;;;5087331;28;20043;-66
2024/01/06 10:56:05;;;;;;;11.35;10.25;;;2.10;99.90;;;;;;5083744;28;20066;-65
2024/01/06 10:58:33;;;;;;;11.57;9.55;;;2.00;99.90;;;;;;5084674;28;20078;-66
2024/01/06 11:01:00;;;;;;;14.07;10.55;;;2.00;99.90;;;;;;5087540;28;20065;-65
2024/01/06 11:03:28;;;;;;;10.60;9.50;;;2.00;99.90;;;;;;5084904;28;20101;-65
2024/01/06 11:05:54;;;;;;;11.35;10.25;;;2.10;99.90;;;;;;5116870;27;20082;-65
2024/01/06 11:08:21;;;;;;;11.20;9.95;;;2.00;99.90;;;;;;5083482;28;20434;-65
2024/01/06 11:10:47;;;;;;;11.40;9.93;;;2.00;99.90;;;;;;5082332;28;20069;-65
2024/01/06 11:13:17;;;;;;;10.48;9.48;;;2.00;99.90;;;;;;5115863;27;20052;-66
2024/01/06 11:15:45;;;;;;;10.65;9.32;;;2.00;99.90;;;;;;5087746;28;20413;-65
2024/01/06 11:18:37;;;;;;;9.68;8.65;;;2.00;99.90;;;;;;5083690;28;20395;-66
2024/01/06 11:21:17;;;;;;;10.60;9.10;;;1.90;99.90;;;;;;5115909;27;20053;-65
2024/01/06 11:23:43;;;;;;;10.27;8.77;;;1.90;99.90;;;;;;5083796;28;20101;-65
2024/01/06 11:26:09;;;;;;;10.40;8.82;;;2.00;99.90;;;;;;5083740;28;20040;-65
2024/01/06 11:28:46;;;;;;;10.05;8.93;;;1.90;99.90;;;;;;5087646;28;20068;-65
2024/01/06 11:31:12;;;;;;;11.00;9.90;;;2.00;99.90;;;;;;5072731;28;20084;-65
2024/01/06 11:33:44;;;;;;;10.98;9.68;;;1.90;99.90;;;;;;5089629;28;20433;-65
2024/01/06 11:36:10;;;;;;;11.63;10.40;;;1.90;99.90;;;;;;5090305;28;20036;-66
2024/01/06 11:38:39;;;;;;;12.63;10.52;;;1.80;99.90;;;;;;5087463;28;20075;-66
2024/01/06 11:41:11;;;;;;;10.68;9.40;;;1.90;99.90;;;;;;5088135;28;20032;-66
2024/01/06 11:43:39;;;;;;;9.88;8.88;;;1.90;99.90;;;;;;5089696;28;20397;-65
2024/01/06 11:46:07;;;;;;;11.77;8.30;;;1.90;99.90;;;;;;5115154;27;20036;-66
2024/01/06 11:48:32;;;;;;;8.90;7.85;;;1.90;99.90;;;;;;5086180;28;20510;-65
2024/01/06 11:50:58;;;;;;;8.30;7.40;;;1.90;99.90;;;;;;5087094;28;20044;-65
2024/01/06 11:53:27;;;;;;;8.93;8.07;;;1.90;99.90;;;;;;5087109;28;20029;-65
2024/01/06 11:55:53;;;;;;;7.82;7.10;;;2.00;99.90;;;;;;5087966;28;20408;-65
2024/01/06 11:58:18;;;;;;;9.38;8.48;;;2.00;99.90;;;;;;5113427;27;20055;-65
2024/01/06 12:00:44;;;;;;;8.70;7.90;;;2.00;99.90;;;;;;5087458;28;20402;-66
2024/01/06 12:03:10;;;;;;;9.88;8.85;;;2.00;99.90;;;;;;5090376;28;20063;-65
2024/01/06 12:05:35;;;;;;;10.65;8.95;;;2.00;99.90;;;;;;5083319;28;20038;-65
2024/01/06 12:08:06;;;;;;;10.18;9.18;;;2.00;99.90;;;;;;5089329;28;20062;-65
2024/01/06 12:10:33;;;;;;;10.65;9.55;;;2.00;99.90;;;;;;5086156;28;20510;-65
2024/01/06 12:13:01;;;;;;;9.45;8.45;;;2.00;99.90;;;;;;5076378;28;20038;-66
2024/01/06 12:15:29;;;;;;;9.98;8.98;;;2.00;99.90;;;;;;5086724;28;20123;-65
2024/01/06 12:17:54;;;;;;;10.13;9.13;;;2.00;99.90;;;;;;5090397;28;20486;-65
2024/01/06 12:20:22;;;;;;;10.40;9.48;;;2.00;99.90;;;;;;5087176;28;20049;-65
2024/01/06 12:22:48;;;;;;;11.98;10.18;;;1.90;99.90;;;;;;5086647;28;20428;-66
2024/01/06 12:25:15;;;;;;;10.20;9.20;;;1.90;99.90;;;;;;5086101;28;20052;-65
2024/01/06 12:27:44;;;;;;;9.85;8.95;;;1.90;99.90;;;;;;5099579;27;20170;-66
2024/01/06 12:30:18;;;;;;;9.32;8.38;;;1.90;99.90;;;;;;5087576;28;20055;-66
2024/01/06 12:32:45;;;;;;;10.30;9.25;;;1.80;99.90;;;;;;5101357;27;20123;-65
2024/01/06 12:35:11;;;;;;;9.05;8.25;;;1.90;99.90;;;;;;5090387;28;20052;-66
2024/01/06 12:37:38;;;;;;;10.38;9.38;;;1.90;99.90;;;;;;5086863;28;20111;-65